RKJK

Kunsan Air Base Airport

Kunsan, South Korea
METAR RKJK 171044Z AUTO 00000KT 2 1/2SM BR FEW035 04/04 A3014 RMK AO2 SLP211
Observed Flight Rules
Jan-17 @ 10:44 UTC (11 minutes ago) Instrument Flight Rules
Wind Visibility Clouds Conditions
Calm 4,023 meters
  • Few at 3,500' AGL
  • Mist
Temperatures Readings
Current 4°C / 39°F
Dewpoint 4°C / 39°F
Humidity 100%
Altimeter 30.14" Hg
Pressure 1021.1 hPa
Elevation 9
METAR RKJK 171044Z AUTO 00000KT 2 1/2SM BR FEW035 04/04 A3014 RMK AO2 SLP211
Observed Flight Rules
Jan-17 @ 10:44 UTC
(11 minutes ago)
IFR
Wind Visibility
Calm 4,023 meters
Clouds
  • Few at 3,500' AGL
Conditions
  • Mist
Temperature Dewpoint
4°C / 39°F 4°C / 39°F
Humidity Altimeter Pressure
100% 30.14" Hg 1021.1 hPa